Time;durP1;ratioP1;P1;durP2;ratioP2;P2;SDS_P1;SDS_P2;PMS_P1;PMS_P2;Temp;Humidity;BMP_temperature;BMP_pressure;BME280_temperature;BME280_humidity;BME280_pressure;Samples;Min_cycle;Max_cycle;Signal;HPM_P1;HPM_P2
2023/10/10 00:02:20;;;;;;;15.20;6.65;;;14.80;99.90;;;;;;5085633;28;20075;-81
2023/10/10 00:04:47;;;;;;;11.27;6.00;;;14.80;99.90;;;;;;5110705;28;20066;-81
2023/10/10 00:07:15;;;;;;;13.68;5.80;;;14.80;99.90;;;;;;5105112;28;20040;-81
2023/10/10 00:09:45;;;;;;;16.05;6.63;;;14.80;99.90;;;;;;5081966;28;20071;-82
2023/10/10 00:12:14;;;;;;;11.32;6.10;;;14.80;99.90;;;;;;5083547;28;20047;-81
2023/10/10 00:14:40;;;;;;;15.32;7.47;;;14.80;99.90;;;;;;5088958;28;20040;-81
2023/10/10 00:17:08;;;;;;;16.70;7.20;;;14.80;99.90;;;;;;5104756;28;20393;-81
2023/10/10 00:19:43;;;;;;;13.48;7.03;;;14.80;99.90;;;;;;5100763;28;20044;-82
2023/10/10 00:22:12;;;;;;;9.77;6.63;;;14.80;99.90;;;;;;5094939;28;20056;-82
2023/10/10 00:24:38;;;;;;;13.05;6.63;;;14.80;99.90;;;;;;5090217;28;20458;-81
2023/10/10 00:27:12;;;;;;;18.33;8.00;;;14.80;99.90;;;;;;5097631;28;20505;-81
2023/10/10 00:29:45;;;;;;;14.25;7.70;;;14.90;99.90;;;;;;5066489;28;20051;-81
2023/10/10 00:32:17;;;;;;;14.77;6.88;;;14.80;99.90;;;;;;5100728;28;20032;-82
2023/10/10 00:34:47;;;;;;;10.68;7.00;;;14.90;99.90;;;;;;5074064;28;20040;-82
2023/10/10 00:37:21;;;;;;;12.75;7.28;;;14.80;99.90;;;;;;5086001;28;20049;-82
2023/10/10 00:40:00;;;;;;;10.48;6.80;;;14.80;99.90;;;;;;5075129;28;20036;-81
2023/10/10 00:42:41;;;;;;;12.30;6.78;;;14.80;99.90;;;;;;5086043;28;20055;-81
2023/10/10 00:45:15;;;;;;;15.43;7.22;;;14.90;99.90;;;;;;5098547;28;20051;-82
2023/10/10 00:47:52;;;;;;;17.23;6.72;;;14.80;99.90;;;;;;5095474;28;20042;-82
2023/10/10 00:50:23;;;;;;;15.82;7.82;;;14.90;99.90;;;;;;5100696;28;20425;-79
2023/10/10 00:53:00;;;;;;;16.40;7.45;;;14.90;99.90;;;;;;5090359;28;20778;-82
2023/10/10 00:55:33;;;;;;;15.70;6.82;;;14.90;99.90;;;;;;5091771;28;20442;-80
2023/10/10 00:58:01;;;;;;;11.55;6.72;;;14.90;99.90;;;;;;5091537;28;20060;-82
2023/10/10 01:00:29;;;;;;;;;;;14.90;99.90;;;;;;5101325;28;20052;-83
2023/10/10 01:03:20;;;;;;;14.20;6.88;;;15.20;99.90;;;;;;5083862;28;19919;-82
2023/10/10 01:05:52;;;;;;;14.77;7.75;;;14.80;99.90;;;;;;5096610;28;20044;-82
2023/10/10 01:08:31;;;;;;;12.50;6.97;;;14.80;99.90;;;;;;5100211;28;20056;-82
2023/10/10 01:11:02;;;;;;;11.32;6.45;;;14.80;99.90;;;;;;5100821;28;20056;-81
2023/10/10 01:13:30;;;;;;;16.40;6.93;;;14.80;99.90;;;;;;5076776;28;20410;-82
2023/10/10 01:15:57;;;;;;;;;;;14.80;99.90;;;;;;5099129;28;20346;-82
2023/10/10 01:18:24;;;;;;;11.45;7.75;;;14.80;99.90;;;;;;5073797;28;19920;-82
2023/10/10 01:20:55;;;;;;;13.63;6.47;;;14.80;99.90;;;;;;5085874;28;20123;-82
2023/10/10 01:23:27;;;;;;;16.15;6.68;;;14.80;99.90;;;;;;5086881;28;20049;-83
2023/10/10 01:25:55;;;;;;;14.55;7.18;;;14.80;99.90;;;;;;5098513;28;20047;-82
2023/10/10 01:33:29;;;;;;;11.43;7.10;;;14.80;99.90;;;;;;5117187;28;20182;-82
2023/10/10 01:36:02;;;;;;;15.20;7.13;;;14.80;99.90;;;;;;5101273;28;20044;-82
2023/10/10 01:38:55;;;;;;;14.15;7.10;;;14.80;99.90;;;;;;5090097;28;20127;-81
2023/10/10 01:41:31;;;;;;;11.18;6.90;;;14.80;99.90;;;;;;5117132;27;20044;-81
2023/10/10 01:44:10;;;;;;;17.40;7.15;;;14.80;99.90;;;;;;5104869;28;20070;-81
2023/10/10 01:46:36;;;;;;;;;;;14.80;99.90;;;;;;5108285;28;20048;-81
2023/10/10 01:49:02;;;;;;;10.20;6.57;;;14.80;99.90;;;;;;5083980;28;19928;-82
2023/10/10 01:51:42;;;;;;;12.35;7.25;;;14.80;99.90;;;;;;5087841;28;20063;-82
2023/10/10 01:54:15;;;;;;;17.08;8.30;;;14.80;99.90;;;;;;5127726;28;20147;-81
2023/10/10 01:56:42;;;;;;;15.60;7.50;;;14.90;99.90;;;;;;5103399;28;20037;-82
2023/10/10 01:59:33;;;;;;;16.83;7.72;;;14.80;99.90;;;;;;5106250;28;20056;-82
2023/10/10 02:01:57;;;;;;;13.02;6.88;;;14.90;99.90;;;;;;5105862;28;20044;-81
2023/10/10 02:04:27;;;;;;;22.80;7.78;;;14.90;99.90;;;;;;5095003;28;20115;-82
2023/10/10 02:06:57;;;;;;;10.77;6.72;;;14.90;99.90;;;;;;5117066;28;20087;-82
2023/10/10 02:11:56;;;;;;;17.77;7.63;;;15.00;99.90;;;;;;5093784;28;20443;-81
2023/10/10 02:14:30;;;;;;;13.45;7.15;;;15.50;99.90;;;;;;5116908;28;20043;-81
2023/10/10 02:17:06;;;;;;;11.77;7.40;;;14.90;99.90;;;;;;5116322;28;20042;-81
2023/10/10 02:19:38;;;;;;;19.17;7.53;;;15.00;99.90;;;;;;5104032;28;20067;-82
2023/10/10 02:22:32;;;;;;;13.55;7.47;;;15.00;99.90;;;;;;5122359;28;20076;-82
2023/10/10 02:27:56;;;;;;;13.70;7.53;;;15.00;99.90;;;;;;5113655;28;20147;-82
2023/10/10 02:30:35;;;;;;;14.68;7.88;;;15.00;99.90;;;;;;5116111;28;20110;-82
2023/10/10 02:33:19;;;;;;;12.90;8.10;;;15.00;99.90;;;;;;5115018;28;20052;-81
2023/10/10 02:35:54;;;;;;;9.90;7.47;;;15.00;99.90;;;;;;5111702;28;20047;-82
2023/10/10 02:38:39;;;;;;;15.23;8.00;;;14.90;99.90;;;;;;5095485;28;20070;-81
2023/10/10 02:44:25;;;;;;;13.98;7.80;;;15.00;99.90;;;;;;5113228;28;20052;-82
2023/10/10 02:46:42;;;;;;;17.92;7.95;;;15.00;99.90;;;;;;5103197;28;20040;-82
2023/10/10 02:49:13;;;;;;;12.70;7.78;;;15.00;99.90;;;;;;5102801;28;20054;-81
2023/10/10 02:51:49;;;;;;;15.10;8.05;;;14.90;99.90;;;;;;5110539;28;20036;-81
2023/10/10 02:57:27;;;;;;;15.27;8.98;;;14.90;99.90;;;;;;5114781;28;20077;-82
2023/10/10 02:59:45;;;;;;;13.88;8.00;;;14.90;99.90;;;;;;5130426;28;20055;-81
2023/10/10 03:02:19;;;;;;;17.58;7.88;;;15.00;99.90;;;;;;5114844;28;20040;-82
2023/10/10 03:07:29;;;;;;;15.20;8.15;;;14.90;99.90;;;;;;5127188;28;20079;-81
2023/10/10 03:12:49;;;;;;;15.18;9.13;;;15.00;99.90;;;;;;5105691;28;20036;-82
2023/10/10 03:25:54;;;;;;;18.30;9.65;;;15.00;99.90;;;;;;5115488;28;20059;-80
2023/10/10 03:28:22;;;;;;;16.42;9.00;;;15.00;99.90;;;;;;5103514;28;20032;-80
2023/10/10 03:31:10;;;;;;;16.42;10.18;;;15.00;99.90;;;;;;5099240;28;20118;-80
2023/10/10 03:33:43;;;;;;;17.17;8.70;;;15.00;99.90;;;;;;5096974;28;20132;-80
2023/10/10 05:23:34;;;;;;;17.13;10.30;;;14.90;99.90;;;;;;5074273;28;20052;-82
2023/10/10 05:26:02;;;;;;;;;;;14.90;99.90;;;;;;5072105;28;20135;-82
2023/10/10 05:28:32;;;;;;;17.02;11.50;;;14.90;99.90;;;;;;5084007;28;19924;-83
2023/10/10 05:30:59;;;;;;;22.88;12.95;;;14.90;99.90;;;;;;5087121;28;20056;-82
2023/10/10 05:33:30;;;;;;;24.48;13.05;;;14.90;99.90;;;;;;5107784;28;20058;-81
2023/10/10 05:36:00;;;;;;;20.63;13.43;;;14.90;99.90;;;;;;5095264;28;20089;-83
2023/10/10 05:38:26;;;;;;;21.00;12.98;;;14.90;99.90;;;;;;5099661;28;20547;-82
2023/10/10 05:40:52;;;;;;;23.05;13.05;;;14.90;99.90;;;;;;5081110;28;20045;-81
2023/10/10 05:43:26;;;;;;;23.58;13.65;;;14.90;99.90;;;;;;5108945;28;20115;-81
2023/10/10 05:45:51;;;;;;;23.23;14.20;;;15.10;99.90;;;;;;5102193;28;20055;-81
2023/10/10 05:48:17;;;;;;;22.27;14.93;;;14.90;99.90;;;;;;5108140;28;20052;-81
2023/10/10 05:50:43;;;;;;;24.75;16.00;;;14.90;99.90;;;;;;5121717;28;20061;-82
2023/10/10 05:53:09;;;;;;;31.80;17.33;;;14.90;99.90;;;;;;5100254;28;20044;-82
2023/10/10 05:55:38;;;;;;;33.60;19.15;;;14.90;99.90;;;;;;5111481;28;20529;-83
2023/10/10 05:58:05;;;;;;;35.63;20.23;;;14.90;99.90;;;;;;5117920;28;20090;-80
2023/10/10 06:00:36;;;;;;;29.20;18.13;;;14.90;99.90;;;;;;5121932;28;20104;-81
2023/10/10 06:03:05;;;;;;;34.50;20.38;;;14.90;99.90;;;;;;5107016;28;20040;-82
2023/10/10 06:05:34;;;;;;;37.65;21.52;;;14.90;99.90;;;;;;5106848;28;20540;-83
2023/10/10 06:08:05;;;;;;;38.65;21.05;;;14.90;99.90;;;;;;5108375;28;20066;-82
2023/10/10 06:10:32;;;;;;;46.72;23.00;;;15.00;99.90;;;;;;5115521;28;20046;-81
2023/10/10 06:13:03;;;;;;;40.63;22.58;;;15.00;99.90;;;;;;5097477;28;20040;-81
2023/10/10 06:15:33;;;;;;;40.35;23.63;;;14.90;99.90;;;;;;5126195;28;20496;-82
2023/10/10 06:18:11;;;;;;;45.50;24.08;;;15.00;99.90;;;;;;5114610;28;20063;-82
2023/10/10 06:20:47;;;;;;;53.42;25.13;;;15.00;99.90;;;;;;5110327;28;20066;-82
2023/10/10 06:23:20;;;;;;;49.83;27.35;;;15.00;99.90;;;;;;5110845;28;20056;-82
2023/10/10 06:25:48;;;;;;;55.17;25.23;;;15.00;99.90;;;;;;5098938;28;20088;-82
2023/10/10 06:28:23;;;;;;;;;;;15.00;99.90;;;;;;5097979;28;20055;-82
2023/10/10 06:30:55;;;;;;;45.08;25.60;;;15.00;99.90;;;;;;5105773;28;19991;-83
2023/10/10 06:33:28;;;;;;;46.42;26.05;;;15.00;99.90;;;;;;5094160;28;20064;-81
2023/10/10 06:38:59;;;;;;;47.25;24.52;;;15.00;99.90;;;;;;5108516;28;20131;-82
2023/10/10 06:41:38;;;;;;;46.40;23.95;;;15.00;99.90;;;;;;5102697;28;20056;-81
2023/10/10 06:44:13;;;;;;;46.17;24.80;;;15.10;99.90;;;;;;5104800;28;20047;-83
2023/10/10 06:46:46;;;;;;;44.35;23.73;;;15.10;99.90;;;;;;5085455;28;20051;-83
2023/10/10 06:49:13;;;;;;;43.60;23.70;;;15.10;99.90;;;;;;5101164;28;20084;-82
2023/10/10 06:51:41;;;;;;;47.10;23.55;;;15.10;99.90;;;;;;5088940;28;20048;-82
2023/10/10 06:54:27;;;;;;;47.50;23.95;;;15.20;99.90;;;;;;5068207;28;20040;-82
2023/10/10 06:57:40;;;;;;;41.58;23.20;;;15.20;99.90;;;;;;5089449;28;20040;-81
2023/10/10 06:59:39;;;;;;;45.38;23.45;;;15.20;99.90;;;;;;5089315;28;20135;-81
2023/10/10 07:02:25;;;;;;;40.60;22.83;;;15.20;99.90;;;;;;5083243;28;20068;-81
2023/10/10 07:04:54;;;;;;;35.47;21.88;;;15.20;99.90;;;;;;5068927;28;20053;-81
2023/10/10 07:07:21;;;;;;;38.03;21.85;;;15.30;99.90;;;;;;5091524;28;20047;-82
2023/10/10 07:09:47;;;;;;;42.15;22.20;;;15.30;99.90;;;;;;5105228;28;20055;-82
2023/10/10 07:12:16;;;;;;;38.80;21.58;;;15.30;99.90;;;;;;5088951;28;20028;-81
2023/10/10 07:14:53;;;;;;;39.17;22.13;;;15.30;99.90;;;;;;5110192;28;20051;-81
2023/10/10 07:17:26;;;;;;;36.08;20.95;;;15.40;99.90;;;;;;5080435;28;20040;-81
2023/10/10 07:22:33;;;;;;;34.13;20.23;;;15.50;99.90;;;;;;5110787;28;20064;-82
2023/10/10 07:28:00;;;;;;;32.65;19.33;;;15.70;99.90;;;;;;5111240;28;20040;-81
2023/10/10 07:30:34;;;;;;;32.13;19.65;;;15.70;99.90;;;;;;5109214;28;20410;-81
2023/10/10 07:33:03;;;;;;;34.22;20.63;;;15.70;99.90;;;;;;5100649;28;20045;-82
2023/10/10 07:35:29;;;;;;;33.70;18.83;;;15.80;99.90;;;;;;5094846;28;20035;-82
2023/10/10 07:37:58;;;;;;;31.83;19.13;;;15.80;99.90;;;;;;5118366;28;20112;-82
2023/10/10 07:40:31;;;;;;;30.00;18.98;;;15.80;99.90;;;;;;5103855;28;20054;-82
2023/10/10 07:42:59;;;;;;;26.05;18.10;;;15.90;99.90;;;;;;5108334;28;20131;-84
2023/10/10 07:45:43;;;;;;;27.75;17.45;;;15.80;99.90;;;;;;5119312;28;20381;-82
2023/10/10 07:50:37;;;;;;;28.95;18.23;;;16.10;99.90;;;;;;5083684;28;20045;-81
2023/10/10 07:53:12;;;;;;;28.30;18.25;;;16.20;99.90;;;;;;5085069;28;20066;-82
2023/10/10 07:56:00;;;;;;;31.95;20.15;;;16.20;99.90;;;;;;5083928;28;20048;-81
2023/10/10 08:01:16;;;;;;;38.13;23.00;;;16.30;99.90;;;;;;5100714;28;20057;-81
2023/10/10 08:03:46;;;;;;;41.88;24.20;;;16.30;99.90;;;;;;5079120;28;20459;-82
2023/10/10 08:06:18;;;;;;;39.80;23.58;;;16.30;99.90;;;;;;5086292;28;20319;-80
2023/10/10 08:08:48;;;;;;;47.38;25.85;;;16.30;99.90;;;;;;5103389;28;20048;-81
2023/10/10 08:11:35;;;;;;;42.75;26.88;;;16.40;99.90;;;;;;5089199;28;20024;-82
2023/10/10 08:14:06;;;;;;;49.63;27.25;;;16.40;99.90;;;;;;5104724;28;20043;-82
2023/10/10 08:16:36;;;;;;;43.75;26.70;;;16.40;99.90;;;;;;5086695;28;20071;-82
2023/10/10 08:19:07;;;;;;;53.05;26.63;;;16.50;99.90;;;;;;5111439;28;20066;-83
2023/10/10 08:21:36;;;;;;;51.50;27.98;;;16.50;99.90;;;;;;5106153;28;20058;-82
2023/10/10 08:24:03;;;;;;;50.55;29.00;;;16.50;99.90;;;;;;5100587;28;20511;-82
2023/10/10 08:26:29;;;;;;;47.47;27.85;;;16.60;99.90;;;;;;5108565;28;20054;-83
2023/10/10 08:28:55;;;;;;;47.38;27.95;;;16.60;99.90;;;;;;5101211;28;20103;-82
2023/10/10 08:31:22;;;;;;;49.25;28.55;;;16.70;99.90;;;;;;5101781;28;20164;-82
2023/10/10 08:33:51;;;;;;;50.03;29.08;;;16.70;99.90;;;;;;5099862;28;20044;-81
2023/10/10 08:36:24;;;;;;;46.53;27.85;;;16.70;99.90;;;;;;5098892;28;20051;-80
2023/10/10 08:38:51;;;;;;;44.10;26.20;;;16.80;99.90;;;;;;5097463;28;20371;-81
2023/10/10 08:41:22;;;;;;;49.22;29.45;;;16.90;99.90;;;;;;5083197;28;20044;-82
2023/10/10 08:43:53;;;;;;;45.35;26.80;;;16.90;99.90;;;;;;5076535;28;20059;-82
2023/10/10 08:46:26;;;;;;;47.03;27.63;;;17.00;99.90;;;;;;5091724;28;20078;-83
2023/10/10 08:49:04;;;;;;;46.22;27.30;;;17.00;99.90;;;;;;5087247;28;20074;-81
2023/10/10 08:51:34;;;;;;;47.28;28.20;;;17.10;99.90;;;;;;5067081;28;20424;-82
2023/10/10 08:54:09;;;;;;;40.97;27.35;;;17.10;99.90;;;;;;5098442;28;20100;-84
2023/10/10 08:56:42;;;;;;;41.25;26.90;;;17.10;99.90;;;;;;5079097;28;20079;-82
2023/10/10 08:59:11;;;;;;;40.33;28.55;;;17.30;99.90;;;;;;5112951;28;20055;-83
2023/10/10 09:01:37;;;;;;;41.50;27.83;;;17.40;99.90;;;;;;5083124;28;20055;-84
2023/10/10 09:04:04;;;;;;;42.72;25.92;;;17.60;99.90;;;;;;5064252;28;20171;-83
2023/10/10 09:06:43;;;;;;;44.03;24.20;;;17.80;99.90;;;;;;5079429;28;20045;-81
2023/10/10 09:09:55;;;;;;;45.80;26.02;;;18.10;99.90;;;;;;5061073;28;20051;-82
2023/10/10 09:11:56;;;;;;;36.20;24.52;;;18.30;99.90;;;;;;5082964;28;20513;-81
2023/10/10 09:14:37;;;;;;;34.33;24.10;;;18.50;99.90;;;;;;5087622;28;20044;-83
2023/10/10 09:17:28;;;;;;;38.22;24.63;;;18.60;99.90;;;;;;5081406;28;20125;-82
2023/10/10 09:19:56;;;;;;;37.75;24.27;;;18.60;99.90;;;;;;5090168;28;20491;-80
2023/10/10 09:22:34;;;;;;;37.70;25.40;;;18.70;99.90;;;;;;5100171;28;20397;-81
2023/10/10 09:25:18;;;;;;;43.33;26.93;;;18.60;99.90;;;;;;5105971;28;20044;-82
2023/10/10 09:27:58;;;;;;;43.97;25.50;;;18.60;99.90;;;;;;5092063;28;20099;-82
2023/10/10 09:30:32;;;;;;;43.65;27.77;;;18.60;99.90;;;;;;5079629;28;20116;-80
2023/10/10 09:33:22;;;;;;;43.05;28.17;;;18.70;99.90;;;;;;5090336;28;20050;-81
2023/10/10 09:38:45;;;;;;;46.33;28.23;;;18.90;99.90;;;;;;5095559;28;20385;-82
2023/10/10 09:41:26;;;;;;;47.90;29.77;;;19.00;99.90;;;;;;5099162;28;20141;-82
2023/10/10 09:49:43;;;;;;;40.78;26.42;;;19.10;99.90;;;;;;5099047;28;20475;-81
2023/10/10 09:55:47;;;;;;;44.17;27.17;;;19.30;99.90;;;;;;5102718;28;20405;-81
2023/10/10 09:58:00;;;;;;;47.35;26.80;;;19.40;99.90;;;;;;5121331;28;20052;-80
2023/10/10 10:06:38;;;;;;;46.95;26.73;;;19.50;99.90;;;;;;5093020;28;20056;-81
2023/10/10 10:09:17;;;;;;;42.95;25.63;;;19.60;99.90;;;;;;5087443;28;20130;-82
2023/10/10 10:12:30;;;;;;;43.38;24.70;;;19.70;99.90;;;;;;5092224;28;20051;-80
2023/10/10 10:15:02;;;;;;;38.78;24.92;;;19.90;99.90;;;;;;5102515;28;20032;-81
2023/10/10 10:17:57;;;;;;;38.17;23.60;;;20.20;99.90;;;;;;5110141;28;20151;-82
2023/10/10 10:23:26;;;;;;;38.63;23.27;;;20.60;99.90;;;;;;5109414;28;20066;-82
2023/10/10 10:28:58;;;;;;;42.85;24.10;;;20.80;99.90;;;;;;5094784;28;20058;-82
2023/10/10 10:31:37;;;;;;;41.08;24.40;;;21.00;99.90;;;;;;5101441;28;20085;-81
2023/10/10 10:34:23;;;;;;;35.53;23.23;;;21.20;99.90;;;;;;5082698;28;20356;-81
2023/10/10 10:36:56;;;;;;;41.65;24.52;;;21.40;99.90;;;;;;5083523;28;20040;-82
2023/10/10 10:39:34;;;;;;;35.97;22.33;;;21.60;99.90;;;;;;5086823;28;20056;-82
2023/10/10 10:42:01;;;;;;;37.17;22.90;;;21.80;99.90;;;;;;5106742;28;20062;-80
2023/10/10 10:44:58;;;;;;;36.60;23.58;;;22.00;99.90;;;;;;5093937;28;20055;-81
2023/10/10 10:47:45;;;;;;;35.83;22.20;;;22.30;99.90;;;;;;5107084;28;20040;-82
2023/10/10 10:50:30;;;;;;;35.30;21.15;;;22.50;99.90;;;;;;5101899;28;20036;-82
2023/10/10 10:53:05;;;;;;;30.10;19.73;;;22.80;99.90;;;;;;5107527;28;20060;-81
2023/10/10 10:55:31;;;;;;;31.08;20.33;;;23.10;99.90;;;;;;5072092;28;20143;-82
2023/10/10 10:58:07;;;;;;;32.65;21.08;;;23.20;99.90;;;;;;5088278;28;20059;-81
2023/10/10 11:03:35;;;;;;;34.28;19.83;;;23.40;99.90;;;;;;5106274;28;20048;-80
2023/10/10 11:06:14;;;;;;;32.80;20.98;;;23.60;99.90;;;;;;5112618;28;20048;-82
2023/10/10 11:16:56;;;;;;;32.05;20.88;;;23.50;99.90;;;;;;5093759;28;20104;-81
2023/10/10 11:22:00;;;;;;;32.58;20.38;;;22.70;99.90;;;;;;5098059;28;20044;-81
2023/10/10 11:24:29;;;;;;;33.88;22.90;;;22.50;99.90;;;;;;5118408;28;20081;-80
2023/10/10 11:30:00;;;;;;;34.40;20.15;;;22.10;99.90;;;;;;5115367;28;19908;-80
2023/10/10 11:32:25;;;;;;;34.92;21.40;;;22.00;99.90;;;;;;5116029;28;20043;-80
2023/10/10 11:34:56;;;;;;;35.83;21.33;;;22.20;99.90;;;;;;5110938;28;20051;-80
2023/10/10 11:37:33;;;;;;;32.83;20.58;;;22.30;99.90;;;;;;5109115;28;20048;-81
2023/10/10 11:42:57;;;;;;;36.22;20.48;;;22.80;99.90;;;;;;5106910;28;20048;-82
2023/10/10 11:45:27;;;;;;;31.48;20.85;;;23.10;99.90;;;;;;5102260;28;20099;-82
2023/10/10 11:48:00;;;;;;;33.78;20.15;;;23.20;99.90;;;;;;5088509;28;20044;-82
2023/10/10 11:50:51;;;;;;;34.47;20.05;;;23.20;99.90;;;;;;5100693;28;20082;-81
2023/10/10 11:53:23;;;;;;;41.22;19.88;;;23.10;99.90;;;;;;5095142;28;20064;-82
2023/10/10 11:55:53;;;;;;;32.22;19.05;;;23.00;99.90;;;;;;5118349;27;20051;-83
2023/10/10 11:58:38;;;;;;;32.30;19.23;;;23.10;99.90;;;;;;5106392;28;20048;-82
2023/10/10 12:01:07;;;;;;;34.70;19.45;;;23.10;99.90;;;;;;5084702;28;20040;-82
2023/10/10 12:06:17;;;;;;;31.98;19.42;;;22.80;99.90;;;;;;5096065;28;20048;-80
2023/10/10 12:08:52;;;;;;;32.63;18.65;;;22.80;99.90;;;;;;5079410;28;20474;-80
2023/10/10 12:11:21;;;;;;;29.17;18.42;;;22.90;99.90;;;;;;5093335;28;20039;-80
2023/10/10 12:13:51;;;;;;;30.98;18.73;;;23.00;99.90;;;;;;5102944;28;20085;-81
2023/10/10 12:16:27;;;;;;;31.77;18.67;;;23.10;99.90;;;;;;5116727;28;20107;-82
2023/10/10 12:18:53;;;;;;;33.13;17.67;;;23.00;99.90;;;;;;5107069;28;20069;-83
2023/10/10 12:21:20;;;;;;;30.17;19.13;;;23.10;99.90;;;;;;5104485;28;20048;-81
2023/10/10 12:23:55;;;;;;;35.25;18.95;;;22.80;99.90;;;;;;5107455;28;20538;-80
2023/10/10 12:26:24;;;;;;;;;;;22.60;99.90;;;;;;5081870;28;20505;-85
2023/10/10 12:28:53;;;;;;;32.67;19.98;;;22.40;99.90;;;;;;5086287;28;19920;-81
2023/10/10 12:31:21;;;;;;;32.28;18.73;;;22.30;99.90;;;;;;5107068;28;20051;-82
2023/10/10 12:33:53;;;;;;;28.85;18.13;;;22.00;99.90;;;;;;5088806;28;20048;-82
2023/10/10 12:36:28;;;;;;;29.38;18.77;;;22.00;99.90;;;;;;5108292;28;20485;-82
2023/10/10 12:38:55;;;;;;;33.83;18.92;;;21.90;99.90;;;;;;5082460;28;20131;-80
2023/10/10 12:41:21;;;;;;;28.03;18.00;;;21.80;99.90;;;;;;5088665;28;20044;-81
2023/10/10 12:43:48;;;;;;;25.33;17.10;;;21.70;99.90;;;;;;5100272;28;20074;-83
2023/10/10 12:46:17;;;;;;;;;;;21.60;99.90;;;;;;5096891;28;20099;-84
2023/10/10 12:48:46;;;;;;;31.52;18.65;;;21.60;99.90;;;;;;5103517;28;19920;-82
2023/10/10 12:51:13;;;;;;;30.77;17.67;;;21.10;99.90;;;;;;5072556;28;20045;-82
2023/10/10 12:53:39;;;;;;;28.10;18.38;;;21.40;99.90;;;;;;5085103;28;20055;-82
2023/10/10 12:56:11;;;;;;;31.70;18.48;;;21.40;99.90;;;;;;5101517;28;20044;-82
2023/10/10 12:58:51;;;;;;;33.90;17.08;;;21.30;99.90;;;;;;5109099;28;20482;-82
2023/10/10 13:01:25;;;;;;;30.90;16.98;;;21.20;99.90;;;;;;5111626;28;20063;-79
2023/10/10 13:03:51;;;;;;;32.05;18.75;;;21.20;99.90;;;;;;5082435;28;20043;-80
2023/10/10 13:06:18;;;;;;;31.58;17.30;;;21.20;99.90;;;;;;5100960;28;20484;-83
2023/10/10 13:11:20;;;;;;;27.55;16.20;;;21.20;99.90;;;;;;5093820;28;20059;-80
2023/10/10 13:13:56;;;;;;;29.20;16.98;;;21.10;99.90;;;;;;5102246;28;20063;-82
2023/10/10 13:16:52;;;;;;;34.42;17.08;;;21.10;99.90;;;;;;5095208;28;20130;-82
2023/10/10 13:19:14;;;;;;;25.92;16.63;;;20.70;99.90;;;;;;5082891;28;20047;-83
2023/10/10 13:21:43;;;;;;;27.80;15.50;;;21.10;99.90;;;;;;5080093;28;20049;-80
2023/10/10 13:24:13;;;;;;;22.98;14.15;;;21.20;99.90;;;;;;5084047;28;20044;-83
2023/10/10 13:26:48;;;;;;;24.67;14.27;;;21.30;99.90;;;;;;5098782;28;20056;-85
2023/10/10 13:29:16;;;;;;;25.70;13.57;;;21.30;99.90;;;;;;5083688;28;20059;-83
2023/10/10 13:31:44;;;;;;;24.13;14.85;;;21.20;99.90;;;;;;5100284;28;20036;-84
2023/10/10 13:34:11;;;;;;;25.60;14.30;;;21.20;99.90;;;;;;5111496;28;20046;-83
2023/10/10 13:36:39;;;;;;;25.65;15.07;;;21.10;99.90;;;;;;5104060;28;20040;-85
2023/10/10 13:39:09;;;;;;;22.52;14.10;;;21.00;99.90;;;;;;5087312;28;20048;-86
2023/10/10 13:41:35;;;;;;;26.40;14.50;;;21.00;99.90;;;;;;5104768;28;20047;-85
2023/10/10 13:44:03;;;;;;;29.87;15.40;;;20.70;99.90;;;;;;5120318;28;20019;-82
2023/10/10 13:46:37;;;;;;;24.73;15.50;;;20.80;99.90;;;;;;5103004;28;20044;-85
2023/10/10 13:49:04;;;;;;;24.80;14.90;;;20.80;99.90;;;;;;5094511;28;20052;-84
2023/10/10 13:51:39;;;;;;;24.95;14.82;;;20.70;99.90;;;;;;5101005;28;20063;-83
2023/10/10 13:54:05;;;;;;;27.45;15.20;;;20.60;99.90;;;;;;5103746;28;20047;-82
2023/10/10 13:56:34;;;;;;;31.88;15.40;;;20.50;99.90;;;;;;5096149;28;20036;-82
2023/10/10 13:59:00;;;;;;;34.05;16.98;;;20.50;99.90;;;;;;5102160;28;20165;-80
2023/10/10 14:01:29;;;;;;;29.58;16.92;;;20.50;99.90;;;;;;5073790;28;20074;-80
2023/10/10 14:04:01;;;;;;;27.83;16.58;;;20.50;99.90;;;;;;5102159;28;20127;-81
2023/10/10 14:06:33;;;;;;;28.00;17.08;;;20.50;99.90;;;;;;5100804;28;20112;-81
2023/10/10 14:09:00;;;;;;;27.42;17.40;;;20.50;99.90;;;;;;5101869;28;20055;-81
2023/10/10 14:11:27;;;;;;;29.83;17.45;;;20.50;99.90;;;;;;5101625;28;20128;-81
2023/10/10 14:13:54;;;;;;;28.80;17.27;;;20.40;99.90;;;;;;5120512;28;20048;-82
2023/10/10 14:16:21;;;;;;;29.67;17.67;;;20.40;99.90;;;;;;5105203;28;20031;-81
2023/10/10 14:18:51;;;;;;;27.48;17.30;;;20.40;99.90;;;;;;5104492;28;20040;-80
2023/10/10 14:21:27;;;;;;;31.23;17.27;;;20.30;99.90;;;;;;5103297;28;20044;-79
2023/10/10 14:24:04;;;;;;;31.58;17.20;;;20.30;99.90;;;;;;5096630;28;20055;-80
2023/10/10 14:26:33;;;;;;;26.80;16.70;;;20.20;99.90;;;;;;5082939;28;20075;-81
2023/10/10 14:29:05;;;;;;;30.88;17.92;;;20.20;99.90;;;;;;5101257;28;20097;-82
2023/10/10 14:31:31;;;;;;;26.92;17.23;;;20.20;99.90;;;;;;5094881;28;20055;-81
2023/10/10 14:34:01;;;;;;;28.63;18.27;;;20.20;99.90;;;;;;5092332;28;20068;-82
2023/10/10 14:36:27;;;;;;;31.42;16.60;;;20.10;99.90;;;;;;5082580;28;20048;-82
2023/10/10 14:38:53;;;;;;;27.23;17.88;;;20.10;99.90;;;;;;5083519;28;20111;-83
2023/10/10 14:41:23;;;;;;;33.08;17.73;;;20.10;99.90;;;;;;5096894;28;20040;-81
2023/10/10 14:43:54;;;;;;;25.13;16.63;;;20.10;99.90;;;;;;5107621;28;20071;-82
2023/10/10 14:46:27;;;;;;;31.00;18.00;;;20.10;99.90;;;;;;5109439;28;20048;-80
2023/10/10 14:49:16;;;;;;;31.25;17.65;;;20.10;99.90;;;;;;5106946;28;20111;-79
2023/10/10 14:51:48;;;;;;;34.97;17.08;;;20.10;99.90;;;;;;5104850;28;20048;-81
2023/10/10 14:54:17;;;;;;;31.08;17.70;;;19.90;99.90;;;;;;5103822;28;20108;-81
2023/10/10 14:56:49;;;;;;;31.50;16.98;;;20.00;99.90;;;;;;5070908;28;20040;-79
2023/10/10 14:59:17;;;;;;;26.40;17.10;;;20.00;99.90;;;;;;5082218;28;20044;-82
2023/10/10 15:01:47;;;;;;;27.30;16.42;;;20.00;99.90;;;;;;5095567;28;20036;-82
2023/10/10 15:04:17;;;;;;;30.17;16.92;;;19.90;99.90;;;;;;5092929;28;20048;-80
2023/10/10 15:06:44;;;;;;;30.58;16.50;;;19.90;99.90;;;;;;5114345;28;20050;-80
2023/10/10 15:09:14;;;;;;;29.88;17.90;;;20.00;99.90;;;;;;5112795;28;20036;-79
2023/10/10 15:11:41;;;;;;;31.65;16.33;;;20.00;99.90;;;;;;5097235;28;20063;-79
2023/10/10 15:14:11;;;;;;;27.30;16.45;;;20.00;99.90;;;;;;5093504;28;20048;-80
2023/10/10 15:16:41;;;;;;;26.67;15.80;;;20.00;99.90;;;;;;5090372;28;20044;-80
2023/10/10 15:19:08;;;;;;;27.48;16.67;;;20.00;99.90;;;;;;5092624;28;20060;-79
2023/10/10 15:21:39;;;;;;;30.27;15.70;;;20.00;99.90;;;;;;5111636;28;20044;-81
2023/10/10 15:24:11;;;;;;;27.90;16.52;;;20.10;99.90;;;;;;5109731;28;20049;-80
2023/10/10 15:26:48;;;;;;;33.65;17.63;;;19.90;99.90;;;;;;5078079;28;20048;-80
2023/10/10 15:29:16;;;;;;;28.10;17.55;;;19.90;99.90;;;;;;5089166;28;20100;-80
2023/10/10 15:31:42;;;;;;;27.42;17.02;;;19.90;99.90;;;;;;5092320;28;20101;-81
2023/10/10 15:34:13;;;;;;;28.77;17.27;;;19.80;99.90;;;;;;5110678;28;20044;-80
2023/10/10 15:36:43;;;;;;;30.92;18.77;;;19.80;99.90;;;;;;5102937;28;20048;-81
2023/10/10 15:39:09;;;;;;;31.35;18.27;;;19.80;99.90;;;;;;5078479;28;20040;-81
2023/10/10 15:41:36;;;;;;;28.50;17.70;;;19.80;99.90;;;;;;5109282;28;20054;-80
2023/10/10 15:44:06;;;;;;;29.42;17.52;;;19.80;99.90;;;;;;5126573;28;20043;-81
2023/10/10 15:46:37;;;;;;;34.75;18.60;;;19.20;99.90;;;;;;5089024;28;20045;-81
2023/10/10 15:49:09;;;;;;;33.45;18.48;;;19.60;99.90;;;;;;5109852;28;20040;-80
2023/10/10 15:51:38;;;;;;;30.48;17.73;;;19.60;99.90;;;;;;5112684;28;20039;-81
2023/10/10 15:54:05;;;;;;;27.75;17.95;;;19.60;99.90;;;;;;5113328;28;20047;-83
2023/10/10 15:56:31;;;;;;;32.28;18.25;;;19.50;99.90;;;;;;5098559;28;20044;-80
2023/10/10 15:58:57;;;;;;;29.23;17.77;;;19.50;99.90;;;;;;5095233;28;20076;-80
2023/10/10 16:01:28;;;;;;;29.98;17.52;;;19.30;99.90;;;;;;5087647;28;20413;-82
2023/10/10 16:03:59;;;;;;;26.17;17.48;;;19.40;99.90;;;;;;5112847;28;20485;-81
2023/10/10 16:06:27;;;;;;;25.65;17.90;;;19.40;99.90;;;;;;5098709;28;20067;-80
2023/10/10 16:08:56;;;;;;;29.35;17.05;;;19.30;99.90;;;;;;5094096;28;20041;-79
2023/10/10 16:11:31;;;;;;;33.80;17.23;;;19.40;99.90;;;;;;5086193;28;20020;-81
2023/10/10 16:13:58;;;;;;;27.98;16.58;;;19.30;99.90;;;;;;5113701;28;20055;-80
2023/10/10 16:16:29;;;;;;;27.77;17.67;;;19.30;99.90;;;;;;5108354;28;20043;-80
2023/10/10 16:18:58;;;;;;;26.40;18.02;;;19.30;99.90;;;;;;5106335;28;20477;-81